sensor_id;sensor_type;location;lat;lon;timestamp;P1;durP1;ratioP1;P2;durP2;ratioP2
9294;SDS011;4686;44.496;11.324;2023-04-03T00:00:12;6.93;;;6.40;;
9294;SDS011;4686;44.496;11.324;2023-04-03T00:02:40;6.40;;;5.90;;
9294;SDS011;4686;44.496;11.324;2023-04-03T00:05:07;6.70;;;6.20;;
9294;SDS011;4686;44.496;11.324;2023-04-03T00:07:36;6.57;;;6.07;;
9294;SDS011;4686;44.496;11.324;2023-04-03T00:10:03;7.03;;;6.37;;
9294;SDS011;4686;44.496;11.324;2023-04-03T00:12:31;6.13;;;5.80;;
9294;SDS011;4686;44.496;11.324;2023-04-03T00:14:58;6.30;;;5.80;;
9294;SDS011;4686;44.496;11.324;2023-04-03T00:17:28;7.20;;;6.27;;
9294;SDS011;4686;44.496;11.324;2023-04-03T00:19:55;6.20;;;5.80;;
9294;SDS011;4686;44.496;11.324;2023-04-03T00:22:22;6.60;;;6.20;;
9294;SDS011;4686;44.496;11.324;2023-04-03T00:24:53;6.10;;;5.70;;
9294;SDS011;4686;44.496;11.324;2023-04-03T00:27:20;6.33;;;5.93;;
9294;SDS011;4686;44.496;11.324;2023-04-03T00:29:47;6.30;;;5.80;;
9294;SDS011;4686;44.496;11.324;2023-04-03T00:32:14;6.17;;;5.77;;
9294;SDS011;4686;44.496;11.324;2023-04-03T00:34:42;6.53;;;6.03;;
9294;SDS011;4686;44.496;11.324;2023-04-03T00:37:09;8.60;;;5.70;;
9294;SDS011;4686;44.496;11.324;2023-04-03T00:39:36;6.37;;;5.83;;
9294;SDS011;4686;44.496;11.324;2023-04-03T00:42:05;6.50;;;6.00;;
9294;SDS011;4686;44.496;11.324;2023-04-03T00:47:19;6.73;;;6.17;;
9294;SDS011;4686;44.496;11.324;2023-04-03T00:49:46;6.83;;;6.23;;
9294;SDS011;4686;44.496;11.324;2023-04-03T00:52:13;6.40;;;6.00;;
9294;SDS011;4686;44.496;11.324;2023-04-03T00:54:42;7.03;;;6.43;;
9294;SDS011;4686;44.496;11.324;2023-04-03T00:57:15;6.40;;;5.90;;
9294;SDS011;4686;44.496;11.324;2023-04-03T00:59:44;6.60;;;6.07;;
9294;SDS011;4686;44.496;11.324;2023-04-03T01:02:13;6.37;;;5.87;;
9294;SDS011;4686;44.496;11.324;2023-04-03T01:04:43;6.37;;;5.77;;
9294;SDS011;4686;44.496;11.324;2023-04-03T01:07:12;6.10;;;5.70;;
9294;SDS011;4686;44.496;11.324;2023-04-03T01:12:49;6.40;;;5.90;;
9294;SDS011;4686;44.496;11.324;2023-04-03T01:19:18;6.40;;;6.00;;
9294;SDS011;4686;44.496;11.324;2023-04-03T01:21:54;6.30;;;5.90;;
9294;SDS011;4686;44.496;11.324;2023-04-03T01:24:30;6.60;;;6.10;;
9294;SDS011;4686;44.496;11.324;2023-04-03T01:26:59;7.07;;;6.40;;
9294;SDS011;4686;44.496;11.324;2023-04-03T01:29:28;6.40;;;5.90;;
9294;SDS011;4686;44.496;11.324;2023-04-03T01:31:57;6.77;;;6.27;;
9294;SDS011;4686;44.496;11.324;2023-04-03T01:34:25;6.43;;;5.93;;
9294;SDS011;4686;44.496;11.324;2023-04-03T01:36:52;7.27;;;6.77;;
9294;SDS011;4686;44.496;11.324;2023-04-03T01:39:20;6.50;;;5.90;;
9294;SDS011;4686;44.496;11.324;2023-04-03T01:41:47;6.70;;;6.20;;
9294;SDS011;4686;44.496;11.324;2023-04-03T01:44:14;6.80;;;6.30;;
9294;SDS011;4686;44.496;11.324;2023-04-03T01:46:50;6.87;;;6.47;;
9294;SDS011;4686;44.496;11.324;2023-04-03T01:49:19;7.20;;;6.70;;
9294;SDS011;4686;44.496;11.324;2023-04-03T01:51:46;7.93;;;6.53;;
9294;SDS011;4686;44.496;11.324;2023-04-03T01:54:13;6.40;;;6.00;;
9294;SDS011;4686;44.496;11.324;2023-04-03T01:56:40;6.83;;;6.33;;
9294;SDS011;4686;44.496;11.324;2023-04-03T01:59:08;6.13;;;5.73;;
9294;SDS011;4686;44.496;11.324;2023-04-03T02:01:35;7.60;;;6.10;;
9294;SDS011;4686;44.496;11.324;2023-04-03T02:04:03;6.80;;;6.10;;
9294;SDS011;4686;44.496;11.324;2023-04-03T02:06:32;6.53;;;5.93;;
9294;SDS011;4686;44.496;11.324;2023-04-03T02:08:59;6.43;;;6.03;;
9294;SDS011;4686;44.496;11.324;2023-04-03T02:11:27;6.60;;;6.10;;
9294;SDS011;4686;44.496;11.324;2023-04-03T02:13:54;6.47;;;6.07;;
9294;SDS011;4686;44.496;11.324;2023-04-03T02:16:21;6.50;;;6.00;;
9294;SDS011;4686;44.496;11.324;2023-04-03T02:18:48;6.53;;;6.03;;
9294;SDS011;4686;44.496;11.324;2023-04-03T02:21:16;7.57;;;6.10;;
9294;SDS011;4686;44.496;11.324;2023-04-03T02:23:44;7.13;;;6.50;;
9294;SDS011;4686;44.496;11.324;2023-04-03T02:26:12;6.67;;;6.10;;
9294;SDS011;4686;44.496;11.324;2023-04-03T02:28:39;7.43;;;6.63;;
9294;SDS011;4686;44.496;11.324;2023-04-03T02:31:07;7.13;;;6.53;;
9294;SDS011;4686;44.496;11.324;2023-04-03T02:33:34;7.07;;;6.47;;
9294;SDS011;4686;44.496;11.324;2023-04-03T02:36:02;7.73;;;6.00;;
9294;SDS011;4686;44.496;11.324;2023-04-03T02:38:29;8.00;;;6.53;;
9294;SDS011;4686;44.496;11.324;2023-04-03T02:41:00;6.43;;;6.03;;
9294;SDS011;4686;44.496;11.324;2023-04-03T02:43:28;6.03;;;5.70;;
9294;SDS011;4686;44.496;11.324;2023-04-03T02:45:55;6.00;;;5.60;;
9294;SDS011;4686;44.496;11.324;2023-04-03T02:48:22;6.20;;;5.70;;
9294;SDS011;4686;44.496;11.324;2023-04-03T02:50:50;6.70;;;6.20;;
9294;SDS011;4686;44.496;11.324;2023-04-03T02:53:17;7.43;;;6.80;;
9294;SDS011;4686;44.496;11.324;2023-04-03T02:55:45;7.03;;;6.53;;
9294;SDS011;4686;44.496;11.324;2023-04-03T02:58:16;6.87;;;6.37;;
9294;SDS011;4686;44.496;11.324;2023-04-03T03:00:43;7.73;;;6.00;;
9294;SDS011;4686;44.496;11.324;2023-04-03T03:03:10;7.53;;;6.67;;
9294;SDS011;4686;44.496;11.324;2023-04-03T03:05:39;7.43;;;6.83;;
9294;SDS011;4686;44.496;11.324;2023-04-03T03:08:06;6.47;;;5.87;;
9294;SDS011;4686;44.496;11.324;2023-04-03T03:10:35;6.50;;;6.00;;
9294;SDS011;4686;44.496;11.324;2023-04-03T03:13:03;6.33;;;5.93;;
9294;SDS011;4686;44.496;11.324;2023-04-03T03:15:31;7.10;;;6.40;;
9294;SDS011;4686;44.496;11.324;2023-04-03T03:17:59;6.60;;;6.20;;
9294;SDS011;4686;44.496;11.324;2023-04-03T03:20:27;6.60;;;6.10;;
9294;SDS011;4686;44.496;11.324;2023-04-03T03:22:54;7.07;;;6.50;;
9294;SDS011;4686;44.496;11.324;2023-04-03T03:25:21;6.83;;;6.30;;
9294;SDS011;4686;44.496;11.324;2023-04-03T03:27:48;6.40;;;6.00;;
9294;SDS011;4686;44.496;11.324;2023-04-03T03:30:15;7.20;;;6.60;;
9294;SDS011;4686;44.496;11.324;2023-04-03T03:32:44;6.50;;;6.00;;
9294;SDS011;4686;44.496;11.324;2023-04-03T03:35:12;7.73;;;6.87;;
9294;SDS011;4686;44.496;11.324;2023-04-03T03:37:39;6.70;;;6.20;;
9294;SDS011;4686;44.496;11.324;2023-04-03T03:40:10;7.17;;;6.50;;
9294;SDS011;4686;44.496;11.324;2023-04-03T03:42:38;7.03;;;6.43;;
9294;SDS011;4686;44.496;11.324;2023-04-03T03:45:06;8.20;;;7.10;;
9294;SDS011;4686;44.496;11.324;2023-04-03T03:47:33;6.70;;;6.17;;
9294;SDS011;4686;44.496;11.324;2023-04-03T03:50:02;7.30;;;6.67;;
9294;SDS011;4686;44.496;11.324;2023-04-03T03:52:30;18.73;;;8.80;;
9294;SDS011;4686;44.496;11.324;2023-04-03T03:54:57;6.50;;;5.90;;
9294;SDS011;4686;44.496;11.324;2023-04-03T03:57:25;9.23;;;6.47;;
9294;SDS011;4686;44.496;11.324;2023-04-03T03:59:53;9.43;;;7.43;;
9294;SDS011;4686;44.496;11.324;2023-04-03T04:02:20;7.10;;;6.60;;
9294;SDS011;4686;44.496;11.324;2023-04-03T04:04:48;7.43;;;6.70;;
9294;SDS011;4686;44.496;11.324;2023-04-03T04:07:16;6.80;;;6.23;;
9294;SDS011;4686;44.496;11.324;2023-04-03T04:09:44;8.00;;;7.20;;
9294;SDS011;4686;44.496;11.324;2023-04-03T04:12:11;6.90;;;6.40;;
9294;SDS011;4686;44.496;11.324;2023-04-03T04:14:38;6.70;;;6.20;;
9294;SDS011;4686;44.496;11.324;2023-04-03T04:17:06;6.63;;;6.10;;
9294;SDS011;4686;44.496;11.324;2023-04-03T04:19:33;7.70;;;6.53;;
9294;SDS011;4686;44.496;11.324;2023-04-03T04:22:01;6.50;;;6.10;;
9294;SDS011;4686;44.496;11.324;2023-04-03T04:24:29;7.03;;;6.30;;
9294;SDS011;4686;44.496;11.324;2023-04-03T04:26:57;6.70;;;6.20;;
9294;SDS011;4686;44.496;11.324;2023-04-03T04:29:24;8.73;;;7.80;;
9294;SDS011;4686;44.496;11.324;2023-04-03T04:31:51;8.40;;;6.67;;
9294;SDS011;4686;44.496;11.324;2023-04-03T04:34:21;9.40;;;7.20;;
9294;SDS011;4686;44.496;11.324;2023-04-03T04:36:48;7.23;;;6.50;;
9294;SDS011;4686;44.496;11.324;2023-04-03T04:39:15;8.43;;;7.10;;
9294;SDS011;4686;44.496;11.324;2023-04-03T04:41:44;7.03;;;6.43;;
9294;SDS011;4686;44.496;11.324;2023-04-03T04:44:11;6.40;;;6.00;;
9294;SDS011;4686;44.496;11.324;2023-04-03T04:46:38;13.70;;;6.60;;
9294;SDS011;4686;44.496;11.324;2023-04-03T04:49:05;9.10;;;6.43;;
9294;SDS011;4686;44.496;11.324;2023-04-03T04:51:33;7.23;;;6.63;;
9294;SDS011;4686;44.496;11.324;2023-04-03T04:54:00;8.00;;;7.40;;
9294;SDS011;4686;44.496;11.324;2023-04-03T04:56:27;7.00;;;6.50;;
9294;SDS011;4686;44.496;11.324;2023-04-03T04:58:56;7.57;;;6.90;;
9294;SDS011;4686;44.496;11.324;2023-04-03T05:01:26;8.43;;;7.40;;
9294;SDS011;4686;44.496;11.324;2023-04-03T05:03:54;7.63;;;7.03;;
9294;SDS011;4686;44.496;11.324;2023-04-03T05:06:21;7.10;;;6.50;;
9294;SDS011;4686;44.496;11.324;2023-04-03T05:08:48;10.13;;;7.30;;
9294;SDS011;4686;44.496;11.324;2023-04-03T05:11:16;7.60;;;6.90;;
9294;SDS011;4686;44.496;11.324;2023-04-03T05:13:43;8.03;;;7.23;;
9294;SDS011;4686;44.496;11.324;2023-04-03T05:16:12;9.30;;;6.83;;
9294;SDS011;4686;44.496;11.324;2023-04-03T05:18:40;6.30;;;5.90;;
9294;SDS011;4686;44.496;11.324;2023-04-03T05:21:07;8.10;;;6.23;;
9294;SDS011;4686;44.496;11.324;2023-04-03T05:23:34;7.97;;;7.37;;
9294;SDS011;4686;44.496;11.324;2023-04-03T05:26:01;8.27;;;7.43;;
9294;SDS011;4686;44.496;11.324;2023-04-03T05:28:29;7.87;;;7.10;;
9294;SDS011;4686;44.496;11.324;2023-04-03T05:30:57;10.93;;;7.17;;
9294;SDS011;4686;44.496;11.324;2023-04-03T05:33:26;9.07;;;6.93;;
9294;SDS011;4686;44.496;11.324;2023-04-03T05:35:53;9.93;;;8.43;;
9294;SDS011;4686;44.496;11.324;2023-04-03T05:38:21;7.90;;;7.20;;
9294;SDS011;4686;44.496;11.324;2023-04-03T05:40:51;8.00;;;7.40;;
9294;SDS011;4686;44.496;11.324;2023-04-03T05:43:21;8.63;;;7.23;;
9294;SDS011;4686;44.496;11.324;2023-04-03T05:45:50;8.37;;;7.57;;
9294;SDS011;4686;44.496;11.324;2023-04-03T05:48:17;8.73;;;7.60;;
9294;SDS011;4686;44.496;11.324;2023-04-03T05:50:46;12.10;;;7.43;;
9294;SDS011;4686;44.496;11.324;2023-04-03T05:53:15;8.77;;;7.97;;
9294;SDS011;4686;44.496;11.324;2023-04-03T05:55:47;9.90;;;8.20;;
9294;SDS011;4686;44.496;11.324;2023-04-03T05:58:14;18.50;;;8.87;;
9294;SDS011;4686;44.496;11.324;2023-04-03T06:00:41;11.23;;;8.20;;
9294;SDS011;4686;44.496;11.324;2023-04-03T06:03:09;9.40;;;8.20;;
9294;SDS011;4686;44.496;11.324;2023-04-03T06:05:36;8.70;;;7.90;;
9294;SDS011;4686;44.496;11.324;2023-04-03T06:08:05;10.60;;;8.90;;
9294;SDS011;4686;44.496;11.324;2023-04-03T06:10:34;8.40;;;7.60;;
9294;SDS011;4686;44.496;11.324;2023-04-03T06:13:01;8.63;;;7.83;;
9294;SDS011;4686;44.496;11.324;2023-04-03T06:15:29;8.47;;;7.83;;
9294;SDS011;4686;44.496;11.324;2023-04-03T06:17:56;10.33;;;8.50;;
9294;SDS011;4686;44.496;11.324;2023-04-03T06:20:23;10.23;;;8.43;;
9294;SDS011;4686;44.496;11.324;2023-04-03T06:22:50;12.17;;;8.90;;
9294;SDS011;4686;44.496;11.324;2023-04-03T06:25:19;21.37;;;16.47;;
9294;SDS011;4686;44.496;11.324;2023-04-03T06:27:46;17.50;;;12.20;;
9294;SDS011;4686;44.496;11.324;2023-04-03T06:30:13;14.53;;;10.77;;
9294;SDS011;4686;44.496;11.324;2023-04-03T06:32:43;13.83;;;10.00;;
9294;SDS011;4686;44.496;11.324;2023-04-03T06:35:11;10.93;;;9.90;;
9294;SDS011;4686;44.496;11.324;2023-04-03T06:37:38;11.77;;;9.70;;
9294;SDS011;4686;44.496;11.324;2023-04-03T06:40:06;11.20;;;10.13;;
9294;SDS011;4686;44.496;11.324;2023-04-03T06:42:35;21.73;;;9.90;;
9294;SDS011;4686;44.496;11.324;2023-04-03T06:45:03;14.63;;;9.87;;
9294;SDS011;4686;44.496;11.324;2023-04-03T06:47:31;12.83;;;10.93;;
9294;SDS011;4686;44.496;11.324;2023-04-03T06:49:58;12.57;;;11.17;;
9294;SDS011;4686;44.496;11.324;2023-04-03T06:52:26;14.67;;;11.37;;
9294;SDS011;4686;44.496;11.324;2023-04-03T06:54:53;13.83;;;11.90;;
9294;SDS011;4686;44.496;11.324;2023-04-03T06:57:22;14.00;;;12.50;;
9294;SDS011;4686;44.496;11.324;2023-04-03T06:59:51;15.57;;;13.37;;
9294;SDS011;4686;44.496;11.324;2023-04-03T07:02:19;23.07;;;14.17;;
9294;SDS011;4686;44.496;11.324;2023-04-03T07:04:47;12.80;;;11.60;;
9294;SDS011;4686;44.496;11.324;2023-04-03T07:07:14;15.10;;;13.70;;
9294;SDS011;4686;44.496;11.324;2023-04-03T07:09:42;16.87;;;13.10;;
9294;SDS011;4686;44.496;11.324;2023-04-03T07:12:11;14.83;;;13.47;;
9294;SDS011;4686;44.496;11.324;2023-04-03T07:14:39;14.80;;;13.40;;
9294;SDS011;4686;44.496;11.324;2023-04-03T07:17:10;16.30;;;12.90;;
9294;SDS011;4686;44.496;11.324;2023-04-03T07:19:38;14.90;;;13.50;;
9294;SDS011;4686;44.496;11.324;2023-04-03T07:22:05;14.83;;;13.43;;
9294;SDS011;4686;44.496;11.324;2023-04-03T07:24:33;14.70;;;13.13;;
9294;SDS011;4686;44.496;11.324;2023-04-03T07:27:01;14.93;;;13.63;;
9294;SDS011;4686;44.496;11.324;2023-04-03T07:29:33;15.03;;;13.53;;
9294;SDS011;4686;44.496;11.324;2023-04-03T07:32:01;15.33;;;13.90;;
9294;SDS011;4686;44.496;11.324;2023-04-03T07:34:30;15.40;;;13.90;;
9294;SDS011;4686;44.496;11.324;2023-04-03T07:36:57;15.33;;;13.93;;
9294;SDS011;4686;44.496;11.324;2023-04-03T07:39:25;15.10;;;13.47;;
9294;SDS011;4686;44.496;11.324;2023-04-03T07:41:53;19.17;;;14.90;;
9294;SDS011;4686;44.496;11.324;2023-04-03T07:44:21;22.30;;;15.27;;
9294;SDS011;4686;44.496;11.324;2023-04-03T07:46:49;16.60;;;14.20;;
9294;SDS011;4686;44.496;11.324;2023-04-03T07:49:16;21.43;;;14.73;;
9294;SDS011;4686;44.496;11.324;2023-04-03T07:51:45;19.10;;;15.70;;
9294;SDS011;4686;44.496;11.324;2023-04-03T07:54:13;16.53;;;14.20;;
9294;SDS011;4686;44.496;11.324;2023-04-03T07:56:44;15.70;;;14.30;;
9294;SDS011;4686;44.496;11.324;2023-04-03T07:59:11;18.20;;;14.20;;
9294;SDS011;4686;44.496;11.324;2023-04-03T08:01:38;19.00;;;13.97;;
9294;SDS011;4686;44.496;11.324;2023-04-03T08:04:06;15.20;;;13.60;;
9294;SDS011;4686;44.496;11.324;2023-04-03T08:06:33;25.37;;;14.70;;
9294;SDS011;4686;44.496;11.324;2023-04-03T08:09:03;16.77;;;14.97;;
9294;SDS011;4686;44.496;11.324;2023-04-03T08:11:30;18.30;;;16.00;;
9294;SDS011;4686;44.496;11.324;2023-04-03T08:13:57;16.40;;;14.63;;
9294;SDS011;4686;44.496;11.324;2023-04-03T08:16:25;15.73;;;14.10;;
9294;SDS011;4686;44.496;11.324;2023-04-03T08:18:53;16.80;;;15.00;;
9294;SDS011;4686;44.496;11.324;2023-04-03T08:21:21;17.83;;;15.60;;
9294;SDS011;4686;44.496;11.324;2023-04-03T08:23:49;19.07;;;15.03;;
9294;SDS011;4686;44.496;11.324;2023-04-03T08:26:18;19.30;;;15.07;;
9294;SDS011;4686;44.496;11.324;2023-04-03T08:28:46;18.27;;;10.43;;
9294;SDS011;4686;44.496;11.324;2023-04-03T08:31:15;15.43;;;13.13;;
9294;SDS011;4686;44.496;11.324;2023-04-03T08:33:43;15.80;;;12.20;;
9294;SDS011;4686;44.496;11.324;2023-04-03T08:36:16;12.43;;;11.17;;
9294;SDS011;4686;44.496;11.324;2023-04-03T08:38:44;11.43;;;10.23;;
9294;SDS011;4686;44.496;11.324;2023-04-03T08:41:13;12.90;;;10.70;;
9294;SDS011;4686;44.496;11.324;2023-04-03T08:43:46;11.70;;;10.50;;
9294;SDS011;4686;44.496;11.324;2023-04-03T08:46:20;11.70;;;10.60;;
9294;SDS011;4686;44.496;11.324;2023-04-03T08:48:51;17.20;;;11.70;;
9294;SDS011;4686;44.496;11.324;2023-04-03T08:51:19;12.87;;;10.00;;
9294;SDS011;4686;44.496;11.324;2023-04-03T08:53:56;11.43;;;9.23;;
9294;SDS011;4686;44.496;11.324;2023-04-03T08:56:24;8.93;;;8.03;;
9294;SDS011;4686;44.496;11.324;2023-04-03T08:58:55;11.30;;;7.90;;
9294;SDS011;4686;44.496;11.324;2023-04-03T09:01:28;8.97;;;7.80;;
9294;SDS011;4686;44.496;11.324;2023-04-03T09:03:57;9.53;;;8.57;;
9294;SDS011;4686;44.496;11.324;2023-04-03T09:06:25;9.57;;;8.77;;
9294;SDS011;4686;44.496;11.324;2023-04-03T09:09:00;11.77;;;10.57;;
9294;SDS011;4686;44.496;11.324;2023-04-03T09:11:36;14.13;;;11.00;;
9294;SDS011;4686;44.496;11.324;2023-04-03T09:14:11;17.63;;;13.90;;
9294;SDS011;4686;44.496;11.324;2023-04-03T09:16:46;12.80;;;11.53;;
9294;SDS011;4686;44.496;11.324;2023-04-03T09:19:15;10.00;;;9.10;;
9294;SDS011;4686;44.496;11.324;2023-04-03T09:21:48;10.97;;;9.87;;
9294;SDS011;4686;44.496;11.324;2023-04-03T09:24:16;9.10;;;8.00;;
9294;SDS011;4686;44.496;11.324;2023-04-03T09:26:44;10.97;;;8.60;;
9294;SDS011;4686;44.496;11.324;2023-04-03T09:29:15;13.60;;;8.90;;
9294;SDS011;4686;44.496;11.324;2023-04-03T09:31:44;9.13;;;8.33;;
9294;SDS011;4686;44.496;11.324;2023-04-03T09:34:15;19.50;;;9.30;;
9294;SDS011;4686;44.496;11.324;2023-04-03T09:36:46;9.70;;;7.70;;
9294;SDS011;4686;44.496;11.324;2023-04-03T09:39:16;9.77;;;7.60;;
9294;SDS011;4686;44.496;11.324;2023-04-03T09:41:58;13.97;;;8.93;;
9294;SDS011;4686;44.496;11.324;2023-04-03T09:44:53;16.73;;;12.30;;
9294;SDS011;4686;44.496;11.324;2023-04-03T09:47:26;9.40;;;8.50;;
9294;SDS011;4686;44.496;11.324;2023-04-03T09:50:25;10.27;;;9.27;;
9294;SDS011;4686;44.496;11.324;2023-04-03T09:55:45;10.27;;;9.27;;
9294;SDS011;4686;44.496;11.324;2023-04-03T09:58:29;11.50;;;10.30;;
9294;SDS011;4686;44.496;11.324;2023-04-03T10:01:09;12.57;;;10.27;;
9294;SDS011;4686;44.496;11.324;2023-04-03T10:04:02;15.70;;;11.70;;
9294;SDS011;4686;44.496;11.324;2023-04-03T10:06:38;11.53;;;9.47;;
9294;SDS011;4686;44.496;11.324;2023-04-03T10:09:17;12.10;;;10.67;;
9294;SDS011;4686;44.496;11.324;2023-04-03T10:12:11;14.87;;;10.20;;
9294;SDS011;4686;44.496;11.324;2023-04-03T10:14:55;12.30;;;10.00;;
9294;SDS011;4686;44.496;11.324;2023-04-03T10:26:03;17.20;;;12.80;;
9294;SDS011;4686;44.496;11.324;2023-04-03T10:28:52;12.90;;;9.07;;
9294;SDS011;4686;44.496;11.324;2023-04-03T10:31:37;13.73;;;7.87;;
9294;SDS011;4686;44.496;11.324;2023-04-03T10:34:10;13.73;;;9.57;;
9294;SDS011;4686;44.496;11.324;2023-04-03T10:36:46;14.17;;;10.20;;
9294;SDS011;4686;44.496;11.324;2023-04-03T10:39:18;7.30;;;6.40;;
9294;SDS011;4686;44.496;11.324;2023-04-03T10:41:58;9.20;;;7.43;;
9294;SDS011;4686;44.496;11.324;2023-04-03T10:44:31;10.63;;;7.30;;
9294;SDS011;4686;44.496;11.324;2023-04-03T10:47:06;13.73;;;5.90;;
9294;SDS011;4686;44.496;11.324;2023-04-03T10:49:40;12.80;;;8.33;;
9294;SDS011;4686;44.496;11.324;2023-04-03T10:52:13;9.77;;;6.40;;
9294;SDS011;4686;44.496;11.324;2023-04-03T10:55:00;11.23;;;6.10;;
9294;SDS011;4686;44.496;11.324;2023-04-03T10:57:37;8.47;;;7.20;;
9294;SDS011;4686;44.496;11.324;2023-04-03T11:00:07;8.90;;;4.67;;
9294;SDS011;4686;44.496;11.324;2023-04-03T11:02:46;13.90;;;5.10;;
9294;SDS011;4686;44.496;11.324;2023-04-03T11:05:18;11.50;;;8.37;;
9294;SDS011;4686;44.496;11.324;2023-04-03T11:07:50;7.00;;;4.70;;
9294;SDS011;4686;44.496;11.324;2023-04-03T11:10:21;9.00;;;6.47;;
9294;SDS011;4686;44.496;11.324;2023-04-03T11:16:06;7.27;;;6.33;;
9294;SDS011;4686;44.496;11.324;2023-04-03T11:18:35;6.90;;;5.47;;
9294;SDS011;4686;44.496;11.324;2023-04-03T11:21:06;4.83;;;4.17;;
9294;SDS011;4686;44.496;11.324;2023-04-03T11:23:38;6.83;;;4.17;;
9294;SDS011;4686;44.496;11.324;2023-04-03T11:26:08;8.13;;;4.50;;
9294;SDS011;4686;44.496;11.324;2023-04-03T11:28:38;4.43;;;4.00;;
9294;SDS011;4686;44.496;11.324;2023-04-03T11:31:13;6.73;;;4.67;;
9294;SDS011;4686;44.496;11.324;2023-04-03T11:33:48;4.50;;;3.90;;
9294;SDS011;4686;44.496;11.324;2023-04-03T11:36:19;6.43;;;4.17;;
9294;SDS011;4686;44.496;11.324;2023-04-03T11:38:55;4.70;;;4.30;;
9294;SDS011;4686;44.496;11.324;2023-04-03T11:41:26;4.80;;;3.97;;
9294;SDS011;4686;44.496;11.324;2023-04-03T11:43:55;5.97;;;4.30;;
9294;SDS011;4686;44.496;11.324;2023-04-03T11:49:08;11.00;;;4.30;;
9294;SDS011;4686;44.496;11.324;2023-04-03T11:51:55;5.83;;;4.23;;
9294;SDS011;4686;44.496;11.324;2023-04-03T11:54:36;9.33;;;4.03;;
9294;SDS011;4686;44.496;11.324;2023-04-03T11:59:58;5.23;;;4.20;;
9294;SDS011;4686;44.496;11.324;2023-04-03T12:05:28;18.20;;;13.67;;
9294;SDS011;4686;44.496;11.324;2023-04-03T12:10:41;5.63;;;5.17;;
9294;SDS011;4686;44.496;11.324;2023-04-03T12:13:13;6.00;;;3.73;;
9294;SDS011;4686;44.496;11.324;2023-04-03T12:18:55;5.97;;;5.37;;
9294;SDS011;4686;44.496;11.324;2023-04-03T12:21:24;7.53;;;5.57;;
9294;SDS011;4686;44.496;11.324;2023-04-03T12:24:24;6.37;;;4.90;;
9294;SDS011;4686;44.496;11.324;2023-04-03T12:27:01;5.03;;;4.53;;
9294;SDS011;4686;44.496;11.324;2023-04-03T12:29:33;5.93;;;4.80;;
9294;SDS011;4686;44.496;11.324;2023-04-03T12:32:05;5.43;;;4.93;;
9294;SDS011;4686;44.496;11.324;2023-04-03T12:34:48;8.77;;;5.50;;
9294;SDS011;4686;44.496;11.324;2023-04-03T12:37:29;4.83;;;4.20;;
9294;SDS011;4686;44.496;11.324;2023-04-03T12:40:10;5.40;;;4.90;;
9294;SDS011;4686;44.496;11.324;2023-04-03T12:42:47;5.23;;;3.73;;
9294;SDS011;4686;44.496;11.324;2023-04-03T12:45:22;7.07;;;4.07;;
9294;SDS011;4686;44.496;11.324;2023-04-03T12:47:55;4.20;;;3.70;;
9294;SDS011;4686;44.496;11.324;2023-04-03T12:50:32;6.30;;;3.93;;
9294;SDS011;4686;44.496;11.324;2023-04-03T12:56:19;4.63;;;4.23;;
9294;SDS011;4686;44.496;11.324;2023-04-03T12:58:56;5.40;;;4.47;;
9294;SDS011;4686;44.496;11.324;2023-04-03T13:01:52;5.57;;;4.37;;
9294;SDS011;4686;44.496;11.324;2023-04-03T13:04:22;3.83;;;3.40;;
9294;SDS011;4686;44.496;11.324;2023-04-03T13:07:17;8.63;;;7.17;;
9294;SDS011;4686;44.496;11.324;2023-04-03T13:09:55;5.50;;;5.10;;
9294;SDS011;4686;44.496;11.324;2023-04-03T13:12:27;3.77;;;3.53;;
9294;SDS011;4686;44.496;11.324;2023-04-03T13:14:55;7.70;;;5.80;;
9294;SDS011;4686;44.496;11.324;2023-04-03T13:17:28;5.80;;;3.57;;
9294;SDS011;4686;44.496;11.324;2023-04-03T13:22:48;5.37;;;3.57;;
9294;SDS011;4686;44.496;11.324;2023-04-03T13:25:24;7.87;;;5.03;;
9294;SDS011;4686;44.496;11.324;2023-04-03T13:27:59;5.43;;;4.90;;
9294;SDS011;4686;44.496;11.324;2023-04-03T13:30:28;17.90;;;4.60;;
9294;SDS011;4686;44.496;11.324;2023-04-03T13:32:58;7.30;;;5.07;;
9294;SDS011;4686;44.496;11.324;2023-04-03T13:35:29;5.30;;;4.90;;
9294;SDS011;4686;44.496;11.324;2023-04-03T13:37:59;3.87;;;3.47;;
9294;SDS011;4686;44.496;11.324;2023-04-03T13:40:26;6.90;;;4.60;;
9294;SDS011;4686;44.496;11.324;2023-04-03T13:43:03;5.73;;;3.80;;
9294;SDS011;4686;44.496;11.324;2023-04-03T13:45:35;4.50;;;4.10;;
9294;SDS011;4686;44.496;11.324;2023-04-03T13:48:16;4.43;;;4.00;;
9294;SDS011;4686;44.496;11.324;2023-04-03T13:50:55;6.77;;;5.23;;
9294;SDS011;4686;44.496;11.324;2023-04-03T13:53:25;11.43;;;5.03;;
9294;SDS011;4686;44.496;11.324;2023-04-03T13:55:58;9.70;;;3.27;;
9294;SDS011;4686;44.496;11.324;2023-04-03T13:58:28;7.83;;;5.20;;
9294;SDS011;4686;44.496;11.324;2023-04-03T14:00:59;3.90;;;3.47;;
9294;SDS011;4686;44.496;11.324;2023-04-03T14:03:29;4.20;;;3.87;;
9294;SDS011;4686;44.496;11.324;2023-04-03T14:05:56;3.40;;;3.17;;
9294;SDS011;4686;44.496;11.324;2023-04-03T14:08:27;13.07;;;9.43;;
9294;SDS011;4686;44.496;11.324;2023-04-03T14:10:55;9.13;;;7.17;;
9294;SDS011;4686;44.496;11.324;2023-04-03T14:13:24;12.70;;;8.17;;
9294;SDS011;4686;44.496;11.324;2023-04-03T14:15:52;4.70;;;3.53;;
9294;SDS011;4686;44.496;11.324;2023-04-03T14:18:20;4.57;;;3.63;;
9294;SDS011;4686;44.496;11.324;2023-04-03T14:20:48;5.57;;;5.17;;
9294;SDS011;4686;44.496;11.324;2023-04-03T14:23:15;11.30;;;8.23;;
9294;SDS011;4686;44.496;11.324;2023-04-03T14:25:42;9.40;;;5.93;;
9294;SDS011;4686;44.496;11.324;2023-04-03T14:28:14;9.30;;;7.57;;
9294;SDS011;4686;44.496;11.324;2023-04-03T14:30:42;10.37;;;7.47;;
9294;SDS011;4686;44.496;11.324;2023-04-03T14:33:21;5.83;;;4.33;;
9294;SDS011;4686;44.496;11.324;2023-04-03T14:35:56;5.20;;;3.10;;
9294;SDS011;4686;44.496;11.324;2023-04-03T14:38:24;5.80;;;5.20;;
9294;SDS011;4686;44.496;11.324;2023-04-03T14:40:53;3.77;;;3.47;;
9294;SDS011;4686;44.496;11.324;2023-04-03T14:43:20;4.67;;;4.13;;
9294;SDS011;4686;44.496;11.324;2023-04-03T14:45:49;4.80;;;4.30;;
9294;SDS011;4686;44.496;11.324;2023-04-03T14:48:19;3.67;;;3.37;;
9294;SDS011;4686;44.496;11.324;2023-04-03T14:50:47;5.03;;;3.87;;
9294;SDS011;4686;44.496;11.324;2023-04-03T14:53:14;3.80;;;3.40;;
9294;SDS011;4686;44.496;11.324;2023-04-03T14:55:44;4.00;;;3.60;;
9294;SDS011;4686;44.496;11.324;2023-04-03T14:58:13;12.00;;;8.40;;
9294;SDS011;4686;44.496;11.324;2023-04-03T15:00:41;7.43;;;6.00;;
9294;SDS011;4686;44.496;11.324;2023-04-03T15:03:12;11.73;;;9.50;;
9294;SDS011;4686;44.496;11.324;2023-04-03T15:05:40;11.30;;;7.70;;
9294;SDS011;4686;44.496;11.324;2023-04-03T15:08:10;4.40;;;3.93;;
9294;SDS011;4686;44.496;11.324;2023-04-03T15:10:40;8.27;;;4.50;;
9294;SDS011;4686;44.496;11.324;2023-04-03T15:13:07;5.33;;;4.40;;
9294;SDS011;4686;44.496;11.324;2023-04-03T15:15:35;9.43;;;7.83;;
9294;SDS011;4686;44.496;11.324;2023-04-03T15:18:03;5.03;;;4.27;;
9294;SDS011;4686;44.496;11.324;2023-04-03T15:20:30;5.07;;;4.67;;
9294;SDS011;4686;44.496;11.324;2023-04-03T15:23:00;7.33;;;5.13;;
9294;SDS011;4686;44.496;11.324;2023-04-03T15:25:28;3.50;;;3.20;;
9294;SDS011;4686;44.496;11.324;2023-04-03T15:27:59;6.20;;;5.43;;
9294;SDS011;4686;44.496;11.324;2023-04-03T15:30:26;4.87;;;3.83;;
9294;SDS011;4686;44.496;11.324;2023-04-03T15:32:54;7.00;;;3.10;;
9294;SDS011;4686;44.496;11.324;2023-04-03T15:35:21;9.03;;;7.23;;
9294;SDS011;4686;44.496;11.324;2023-04-03T15:37:49;4.70;;;4.40;;
9294;SDS011;4686;44.496;11.324;2023-04-03T15:40:17;17.47;;;10.67;;
9294;SDS011;4686;44.496;11.324;2023-04-03T15:42:46;19.10;;;14.33;;
9294;SDS011;4686;44.496;11.324;2023-04-03T15:45:14;9.40;;;6.47;;
9294;SDS011;4686;44.496;11.324;2023-04-03T15:47:42;6.40;;;4.47;;
9294;SDS011;4686;44.496;11.324;2023-04-03T15:50:10;13.20;;;11.37;;
9294;SDS011;4686;44.496;11.324;2023-04-03T15:52:37;43.40;;;33.53;;
9294;SDS011;4686;44.496;11.324;2023-04-03T15:55:07;4.63;;;4.20;;